sensor_id;sensor_type;location;lat;lon;timestamp;P1;durP1;ratioP1;P2;durP2;ratioP2
26634;SDS011;14490;54.208;37.686;2023-04-29T00:02:05;3.28;;;0.50;;
26634;SDS011;14490;54.208;37.686;2023-04-29T00:04:33;1.02;;;0.70;;
26634;SDS011;14490;54.208;37.686;2023-04-29T00:07:02;5.95;;;0.63;;
26634;SDS011;14490;54.208;37.686;2023-04-29T00:09:32;3.15;;;1.00;;
26634;SDS011;14490;54.208;37.686;2023-04-29T00:12:00;0.90;;;0.73;;
26634;SDS011;14490;54.208;37.686;2023-04-29T00:14:29;0.93;;;0.85;;
26634;SDS011;14490;54.208;37.686;2023-04-29T00:16:56;1.27;;;0.93;;
26634;SDS011;14490;54.208;37.686;2023-04-29T00:19:24;3.85;;;1.00;;
26634;SDS011;14490;54.208;37.686;2023-04-29T00:21:53;0.80;;;0.68;;
26634;SDS011;14490;54.208;37.686;2023-04-29T00:24:20;0.93;;;0.80;;
26634;SDS011;14490;54.208;37.686;2023-04-29T00:26:48;2.63;;;1.00;;
26634;SDS011;14490;54.208;37.686;2023-04-29T00:29:18;3.88;;;0.90;;
26634;SDS011;14490;54.208;37.686;2023-04-29T00:31:49;1.52;;;0.82;;
26634;SDS011;14490;54.208;37.686;2023-04-29T00:34:16;2.10;;;0.60;;
26634;SDS011;14490;54.208;37.686;2023-04-29T00:36:44;4.43;;;0.80;;
26634;SDS011;14490;54.208;37.686;2023-04-29T00:39:11;3.75;;;0.85;;
26634;SDS011;14490;54.208;37.686;2023-04-29T00:41:39;8.98;;;1.10;;
26634;SDS011;14490;54.208;37.686;2023-04-29T00:44:06;2.92;;;1.23;;
26634;SDS011;14490;54.208;37.686;2023-04-29T00:46:34;0.90;;;0.65;;
26634;SDS011;14490;54.208;37.686;2023-04-29T00:49:03;3.15;;;0.90;;
26634;SDS011;14490;54.208;37.686;2023-04-29T00:51:31;3.05;;;0.85;;
26634;SDS011;14490;54.208;37.686;2023-04-29T00:53:58;3.05;;;0.82;;
26634;SDS011;14490;54.208;37.686;2023-04-29T00:56:28;1.83;;;0.68;;
26634;SDS011;14490;54.208;37.686;2023-04-29T00:58:57;1.05;;;0.77;;
26634;SDS011;14490;54.208;37.686;2023-04-29T01:01:29;2.28;;;0.90;;
26634;SDS011;14490;54.208;37.686;2023-04-29T01:03:57;4.38;;;1.10;;
26634;SDS011;14490;54.208;37.686;2023-04-29T01:06:28;3.60;;;0.80;;
26634;SDS011;14490;54.208;37.686;2023-04-29T01:12:05;3.20;;;1.10;;
26634;SDS011;14490;54.208;37.686;2023-04-29T01:14:47;4.32;;;2.38;;
26634;SDS011;14490;54.208;37.686;2023-04-29T01:17:28;1.20;;;1.00;;
26634;SDS011;14490;54.208;37.686;2023-04-29T01:20:03;4.00;;;1.00;;
26634;SDS011;14490;54.208;37.686;2023-04-29T01:22:34;1.17;;;0.90;;
26634;SDS011;14490;54.208;37.686;2023-04-29T01:25:06;2.08;;;1.80;;
26634;SDS011;14490;54.208;37.686;2023-04-29T01:27:36;1.50;;;1.30;;
26634;SDS011;14490;54.208;37.686;2023-04-29T01:30:20;3.58;;;0.80;;
26634;SDS011;14490;54.208;37.686;2023-04-29T01:32:57;1.50;;;0.90;;
26634;SDS011;14490;54.208;37.686;2023-04-29T01:35:39;6.25;;;1.30;;
26634;SDS011;14490;54.208;37.686;2023-04-29T01:38:27;1.98;;;1.52;;
26634;SDS011;14490;54.208;37.686;2023-04-29T01:41:07;3.45;;;1.90;;
26634;SDS011;14490;54.208;37.686;2023-04-29T01:43:39;1.75;;;1.25;;
26634;SDS011;14490;54.208;37.686;2023-04-29T01:46:08;3.22;;;1.33;;
26634;SDS011;14490;54.208;37.686;2023-04-29T01:48:37;3.42;;;1.58;;
26634;SDS011;14490;54.208;37.686;2023-04-29T01:51:04;11.77;;;1.80;;
26634;SDS011;14490;54.208;37.686;2023-04-29T01:53:32;2.40;;;1.15;;
26634;SDS011;14490;54.208;37.686;2023-04-29T01:56:01;4.07;;;1.60;;
26634;SDS011;14490;54.208;37.686;2023-04-29T01:58:30;11.30;;;2.17;;
26634;SDS011;14490;54.208;37.686;2023-04-29T02:00:57;5.05;;;1.27;;
26634;SDS011;14490;54.208;37.686;2023-04-29T02:03:25;1.73;;;1.20;;
26634;SDS011;14490;54.208;37.686;2023-04-29T02:05:54;2.28;;;1.33;;
26634;SDS011;14490;54.208;37.686;2023-04-29T02:08:24;6.30;;;1.23;;
26634;SDS011;14490;54.208;37.686;2023-04-29T02:10:52;3.92;;;1.23;;
26634;SDS011;14490;54.208;37.686;2023-04-29T02:13:22;2.38;;;0.80;;
26634;SDS011;14490;54.208;37.686;2023-04-29T02:15:51;1.50;;;0.90;;
26634;SDS011;14490;54.208;37.686;2023-04-29T02:18:19;9.25;;;1.42;;
26634;SDS011;14490;54.208;37.686;2023-04-29T02:20:48;1.48;;;1.25;;
26634;SDS011;14490;54.208;37.686;2023-04-29T02:23:30;7.05;;;0.93;;
26634;SDS011;14490;54.208;37.686;2023-04-29T02:26:01;2.65;;;0.98;;
26634;SDS011;14490;54.208;37.686;2023-04-29T02:28:31;2.20;;;0.60;;
26634;SDS011;14490;54.208;37.686;2023-04-29T02:31:02;2.95;;;0.73;;
26634;SDS011;14490;54.208;37.686;2023-04-29T02:33:33;1.58;;;0.50;;
26634;SDS011;14490;54.208;37.686;2023-04-29T02:36:00;1.67;;;0.95;;
26634;SDS011;14490;54.208;37.686;2023-04-29T02:38:28;6.53;;;0.68;;
26634;SDS011;14490;54.208;37.686;2023-04-29T02:40:56;0.90;;;0.50;;
26634;SDS011;14490;54.208;37.686;2023-04-29T02:43:23;1.67;;;0.73;;
26634;SDS011;14490;54.208;37.686;2023-04-29T02:45:50;2.05;;;0.50;;
26634;SDS011;14490;54.208;37.686;2023-04-29T02:48:22;0.85;;;0.60;;
26634;SDS011;14490;54.208;37.686;2023-04-29T02:50:49;1.42;;;0.57;;
26634;SDS011;14490;54.208;37.686;2023-04-29T02:53:17;2.08;;;0.80;;
26634;SDS011;14490;54.208;37.686;2023-04-29T02:55:45;1.00;;;0.70;;
26634;SDS011;14490;54.208;37.686;2023-04-29T02:58:12;1.45;;;0.65;;
26634;SDS011;14490;54.208;37.686;2023-04-29T03:00:40;5.25;;;0.90;;
26634;SDS011;14490;54.208;37.686;2023-04-29T03:03:07;3.78;;;1.00;;
26634;SDS011;14490;54.208;37.686;2023-04-29T03:05:36;0.55;;;0.55;;
26634;SDS011;14490;54.208;37.686;2023-04-29T03:08:05;2.63;;;1.00;;
26634;SDS011;14490;54.208;37.686;2023-04-29T03:10:34;2.22;;;1.08;;
26634;SDS011;14490;54.208;37.686;2023-04-29T03:13:03;0.68;;;0.65;;
26634;SDS011;14490;54.208;37.686;2023-04-29T03:15:30;2.00;;;1.10;;
26634;SDS011;14490;54.208;37.686;2023-04-29T03:18:08;1.85;;;1.15;;
26634;SDS011;14490;54.208;37.686;2023-04-29T03:20:37;2.65;;;1.08;;
26634;SDS011;14490;54.208;37.686;2023-04-29T03:23:07;1.42;;;1.17;;
26634;SDS011;14490;54.208;37.686;2023-04-29T03:25:37;1.70;;;1.30;;
26634;SDS011;14490;54.208;37.686;2023-04-29T03:28:05;2.00;;;1.17;;
26634;SDS011;14490;54.208;37.686;2023-04-29T03:30:32;2.33;;;1.23;;
26634;SDS011;14490;54.208;37.686;2023-04-29T03:33:00;1.67;;;1.27;;
26634;SDS011;14490;54.208;37.686;2023-04-29T03:35:30;1.13;;;0.85;;
26634;SDS011;14490;54.208;37.686;2023-04-29T03:37:59;1.02;;;0.90;;
26634;SDS011;14490;54.208;37.686;2023-04-29T03:40:27;1.45;;;1.00;;
26634;SDS011;14490;54.208;37.686;2023-04-29T03:42:54;1.65;;;1.10;;
26634;SDS011;14490;54.208;37.686;2023-04-29T03:45:22;2.53;;;1.02;;
26634;SDS011;14490;54.208;37.686;2023-04-29T03:47:52;1.42;;;1.20;;
26634;SDS011;14490;54.208;37.686;2023-04-29T03:50:20;1.20;;;0.90;;
26634;SDS011;14490;54.208;37.686;2023-04-29T03:52:48;1.65;;;0.88;;
26634;SDS011;14490;54.208;37.686;2023-04-29T03:55:17;1.80;;;0.93;;
26634;SDS011;14490;54.208;37.686;2023-04-29T03:57:45;0.98;;;0.88;;
26634;SDS011;14490;54.208;37.686;2023-04-29T04:00:13;1.38;;;1.10;;
26634;SDS011;14490;54.208;37.686;2023-04-29T04:02:41;1.05;;;0.85;;
26634;SDS011;14490;54.208;37.686;2023-04-29T04:05:08;1.48;;;1.02;;
26634;SDS011;14490;54.208;37.686;2023-04-29T04:07:36;1.13;;;0.98;;
26634;SDS011;14490;54.208;37.686;2023-04-29T04:10:06;0.98;;;0.85;;
26634;SDS011;14490;54.208;37.686;2023-04-29T04:12:36;1.90;;;0.60;;
26634;SDS011;14490;54.208;37.686;2023-04-29T04:15:06;1.90;;;1.02;;
26634;SDS011;14490;54.208;37.686;2023-04-29T04:17:34;1.38;;;1.15;;
26634;SDS011;14490;54.208;37.686;2023-04-29T04:20:11;1.80;;;1.00;;
26634;SDS011;14490;54.208;37.686;2023-04-29T04:22:39;1.27;;;1.00;;
26634;SDS011;14490;54.208;37.686;2023-04-29T04:25:07;1.80;;;0.70;;
26634;SDS011;14490;54.208;37.686;2023-04-29T04:27:37;3.78;;;1.20;;
26634;SDS011;14490;54.208;37.686;2023-04-29T04:30:08;1.67;;;0.98;;
26634;SDS011;14490;54.208;37.686;2023-04-29T04:32:37;1.40;;;0.70;;
26634;SDS011;14490;54.208;37.686;2023-04-29T04:35:05;1.38;;;1.08;;
26634;SDS011;14490;54.208;37.686;2023-04-29T04:37:33;1.30;;;0.95;;
26634;SDS011;14490;54.208;37.686;2023-04-29T04:40:06;3.40;;;0.95;;
26634;SDS011;14490;54.208;37.686;2023-04-29T04:42:35;3.92;;;0.80;;
26634;SDS011;14490;54.208;37.686;2023-04-29T04:47:35;1.10;;;0.90;;
26634;SDS011;14490;54.208;37.686;2023-04-29T04:50:03;1.60;;;1.17;;
26634;SDS011;14490;54.208;37.686;2023-04-29T04:52:32;1.92;;;1.25;;
26634;SDS011;14490;54.208;37.686;2023-04-29T04:55:00;1.60;;;1.45;;
26634;SDS011;14490;54.208;37.686;2023-04-29T04:57:27;2.00;;;1.13;;
26634;SDS011;14490;54.208;37.686;2023-04-29T04:59:58;2.28;;;1.67;;
26634;SDS011;14490;54.208;37.686;2023-04-29T05:02:29;1.50;;;1.30;;
26634;SDS011;14490;54.208;37.686;2023-04-29T05:05:04;1.38;;;1.08;;
26634;SDS011;14490;54.208;37.686;2023-04-29T05:07:34;1.52;;;1.10;;
26634;SDS011;14490;54.208;37.686;2023-04-29T05:10:01;2.20;;;1.58;;
26634;SDS011;14490;54.208;37.686;2023-04-29T05:12:44;1.80;;;1.10;;
26634;SDS011;14490;54.208;37.686;2023-04-29T05:15:13;4.60;;;1.58;;
26634;SDS011;14490;54.208;37.686;2023-04-29T05:17:43;2.65;;;1.27;;
26634;SDS011;14490;54.208;37.686;2023-04-29T05:20:11;1.77;;;1.38;;
26634;SDS011;14490;54.208;37.686;2023-04-29T05:22:39;1.85;;;1.27;;
26634;SDS011;14490;54.208;37.686;2023-04-29T05:25:07;1.67;;;1.40;;
26634;SDS011;14490;54.208;37.686;2023-04-29T05:27:38;2.22;;;1.77;;
26634;SDS011;14490;54.208;37.686;2023-04-29T05:30:09;3.72;;;2.10;;
26634;SDS011;14490;54.208;37.686;2023-04-29T05:32:39;5.03;;;2.20;;
26634;SDS011;14490;54.208;37.686;2023-04-29T05:35:07;2.65;;;2.13;;
26634;SDS011;14490;54.208;37.686;2023-04-29T05:37:37;2.97;;;2.28;;
26634;SDS011;14490;54.208;37.686;2023-04-29T05:40:05;5.22;;;2.97;;
26634;SDS011;14490;54.208;37.686;2023-04-29T05:42:34;3.63;;;2.90;;
26634;SDS011;14490;54.208;37.686;2023-04-29T05:45:02;3.70;;;2.40;;
26634;SDS011;14490;54.208;37.686;2023-04-29T05:47:32;2.83;;;2.63;;
26634;SDS011;14490;54.208;37.686;2023-04-29T05:50:02;2.63;;;2.40;;
26634;SDS011;14490;54.208;37.686;2023-04-29T05:52:31;2.67;;;2.30;;
26634;SDS011;14490;54.208;37.686;2023-04-29T05:55:00;2.97;;;2.67;;
26634;SDS011;14490;54.208;37.686;2023-04-29T05:57:28;4.07;;;2.55;;
26634;SDS011;14490;54.208;37.686;2023-04-29T05:59:57;2.38;;;1.85;;
26634;SDS011;14490;54.208;37.686;2023-04-29T06:02:25;2.03;;;1.92;;
26634;SDS011;14490;54.208;37.686;2023-04-29T06:05:16;1.98;;;1.88;;
26634;SDS011;14490;54.208;37.686;2023-04-29T06:09:59;1.60;;;1.50;;
26634;SDS011;14490;54.208;37.686;2023-04-29T06:11:10;1.77;;;1.63;;
26634;SDS011;14490;54.208;37.686;2023-04-29T06:14:17;2.50;;;2.30;;
26634;SDS011;14490;54.208;37.686;2023-04-29T06:16:44;2.20;;;2.00;;
26634;SDS011;14490;54.208;37.686;2023-04-29T06:19:17;1.65;;;1.55;;
26634;SDS011;14490;54.208;37.686;2023-04-29T06:21:58;1.98;;;1.55;;
26634;SDS011;14490;54.208;37.686;2023-04-29T06:24:25;1.70;;;1.60;;
26634;SDS011;14490;54.208;37.686;2023-04-29T06:27:02;2.25;;;2.00;;
26634;SDS011;14490;54.208;37.686;2023-04-29T06:29:36;2.20;;;1.98;;
26634;SDS011;14490;54.208;37.686;2023-04-29T06:34:51;1.67;;;1.52;;
26634;SDS011;14490;54.208;37.686;2023-04-29T06:37:31;1.80;;;1.70;;
26634;SDS011;14490;54.208;37.686;2023-04-29T06:40:05;1.80;;;1.70;;
26634;SDS011;14490;54.208;37.686;2023-04-29T06:43:24;2.33;;;2.13;;
26634;SDS011;14490;54.208;37.686;2023-04-29T06:46:12;2.20;;;2.00;;
26634;SDS011;14490;54.208;37.686;2023-04-29T06:48:45;4.63;;;4.22;;
26634;SDS011;14490;54.208;37.686;2023-04-29T06:51:15;4.38;;;4.07;;
26634;SDS011;14490;54.208;37.686;2023-04-29T06:53:56;2.70;;;2.50;;
26634;SDS011;14490;54.208;37.686;2023-04-29T06:56:24;4.00;;;3.63;;
26634;SDS011;14490;54.208;37.686;2023-04-29T06:58:52;3.10;;;2.90;;
26634;SDS011;14490;54.208;37.686;2023-04-29T07:01:19;1.92;;;1.80;;
26634;SDS011;14490;54.208;37.686;2023-04-29T07:03:47;2.42;;;2.22;;
26634;SDS011;14490;54.208;37.686;2023-04-29T07:06:16;2.35;;;2.15;;
26634;SDS011;14490;54.208;37.686;2023-04-29T07:09:17;3.45;;;3.15;;
26634;SDS011;14490;54.208;37.686;2023-04-29T07:12:19;4.10;;;3.25;;
26634;SDS011;14490;54.208;37.686;2023-04-29T07:15:34;3.38;;;2.80;;
26634;SDS011;14490;54.208;37.686;2023-04-29T07:18:15;3.00;;;2.80;;
26634;SDS011;14490;54.208;37.686;2023-04-29T07:20:54;3.65;;;3.35;;
26634;SDS011;14490;54.208;37.686;2023-04-29T07:26:09;4.00;;;3.60;;
26634;SDS011;14490;54.208;37.686;2023-04-29T07:28:46;3.92;;;3.63;;
26634;SDS011;14490;54.208;37.686;2023-04-29T07:31:14;3.80;;;3.45;;
26634;SDS011;14490;54.208;37.686;2023-04-29T07:33:47;3.75;;;3.45;;
26634;SDS011;14490;54.208;37.686;2023-04-29T07:36:15;4.15;;;3.85;;
26634;SDS011;14490;54.208;37.686;2023-04-29T07:38:43;4.95;;;4.55;;
26634;SDS011;14490;54.208;37.686;2023-04-29T07:44:04;3.95;;;3.63;;
26634;SDS011;14490;54.208;37.686;2023-04-29T07:46:32;2.90;;;2.70;;
26634;SDS011;14490;54.208;37.686;2023-04-29T07:49:08;3.92;;;2.67;;
26634;SDS011;14490;54.208;37.686;2023-04-29T07:52:03;4.40;;;4.00;;
26634;SDS011;14490;54.208;37.686;2023-04-29T07:54:42;5.75;;;4.10;;
26634;SDS011;14490;54.208;37.686;2023-04-29T07:57:14;5.13;;;4.63;;
26634;SDS011;14490;54.208;37.686;2023-04-29T07:59:53;4.25;;;3.95;;
26634;SDS011;14490;54.208;37.686;2023-04-29T08:02:54;3.50;;;3.20;;
26634;SDS011;14490;54.208;37.686;2023-04-29T08:05:59;4.18;;;3.88;;
26634;SDS011;14490;54.208;37.686;2023-04-29T08:08:40;4.07;;;3.78;;
26634;SDS011;14490;54.208;37.686;2023-04-29T08:11:14;5.03;;;4.15;;
26634;SDS011;14490;54.208;37.686;2023-04-29T08:24:03;1.70;;;1.60;;
26634;SDS011;14490;54.208;37.686;2023-04-29T08:26:59;2.40;;;1.52;;
26634;SDS011;14490;54.208;37.686;2023-04-29T08:29:50;1.42;;;1.23;;
26634;SDS011;14490;54.208;37.686;2023-04-29T08:33:17;3.88;;;1.25;;
26634;SDS011;14490;54.208;37.686;2023-04-29T08:39:33;2.55;;;0.90;;
26634;SDS011;14490;54.208;37.686;2023-04-29T08:50:16;1.00;;;0.70;;
26634;SDS011;14490;54.208;37.686;2023-04-29T08:53:11;1.93;;;0.90;;
26634;SDS011;14490;54.208;37.686;2023-04-29T08:57:44;1.52;;;0.80;;
26634;SDS011;14490;54.208;37.686;2023-04-29T09:00:04;2.47;;;1.00;;
26634;SDS011;14490;54.208;37.686;2023-04-29T09:02:34;2.20;;;0.77;;
26634;SDS011;14490;54.208;37.686;2023-04-29T09:05:09;2.50;;;0.90;;
26634;SDS011;14490;54.208;37.686;2023-04-29T09:07:37;0.75;;;0.60;;
26634;SDS011;14490;54.208;37.686;2023-04-29T09:10:09;1.25;;;0.80;;
26634;SDS011;14490;54.208;37.686;2023-04-29T09:12:39;1.08;;;0.80;;
26634;SDS011;14490;54.208;37.686;2023-04-29T09:15:10;2.73;;;1.00;;
26634;SDS011;14490;54.208;37.686;2023-04-29T09:17:39;1.00;;;0.70;;
26634;SDS011;14490;54.208;37.686;2023-04-29T09:23:01;1.27;;;0.80;;
26634;SDS011;14490;54.208;37.686;2023-04-29T09:25:32;0.65;;;0.60;;
26634;SDS011;14490;54.208;37.686;2023-04-29T09:28:13;1.17;;;1.08;;
26634;SDS011;14490;54.208;37.686;2023-04-29T09:30:45;1.52;;;0.90;;
26634;SDS011;14490;54.208;37.686;2023-04-29T09:33:15;2.42;;;1.02;;
26634;SDS011;14490;54.208;37.686;2023-04-29T09:35:43;3.67;;;0.88;;
26634;SDS011;14490;54.208;37.686;2023-04-29T09:38:16;1.07;;;0.83;;
26634;SDS011;14490;54.208;37.686;2023-04-29T09:40:48;0.95;;;0.80;;
26634;SDS011;14490;54.208;37.686;2023-04-29T09:43:17;1.23;;;1.13;;
26634;SDS011;14490;54.208;37.686;2023-04-29T09:45:46;3.15;;;1.80;;
26634;SDS011;14490;54.208;37.686;2023-04-29T09:50:44;1.35;;;0.82;;
26634;SDS011;14490;54.208;37.686;2023-04-29T09:53:28;1.13;;;0.90;;
26634;SDS011;14490;54.208;37.686;2023-04-29T09:55:58;2.00;;;0.82;;
26634;SDS011;14490;54.208;37.686;2023-04-29T09:58:27;1.45;;;0.90;;
26634;SDS011;14490;54.208;37.686;2023-04-29T10:01:01;1.20;;;0.75;;
26634;SDS011;14490;54.208;37.686;2023-04-29T10:03:31;2.08;;;0.98;;
26634;SDS011;14490;54.208;37.686;2023-04-29T10:06:00;4.40;;;1.15;;
26634;SDS011;14490;54.208;37.686;2023-04-29T10:08:32;1.48;;;0.70;;
26634;SDS011;14490;54.208;37.686;2023-04-29T10:11:11;5.13;;;1.20;;
26634;SDS011;14490;54.208;37.686;2023-04-29T10:13:49;1.75;;;0.70;;
26634;SDS011;14490;54.208;37.686;2023-04-29T10:17:54;4.57;;;0.90;;
26634;SDS011;14490;54.208;37.686;2023-04-29T10:20:18;1.73;;;0.82;;
26634;SDS011;14490;54.208;37.686;2023-04-29T10:23:00;4.32;;;0.98;;
26634;SDS011;14490;54.208;37.686;2023-04-29T10:25:44;2.92;;;0.90;;
26634;SDS011;14490;54.208;37.686;2023-04-29T10:29:13;3.83;;;0.75;;
26634;SDS011;14490;54.208;37.686;2023-04-29T10:31:46;2.47;;;1.02;;
26634;SDS011;14490;54.208;37.686;2023-04-29T10:34:18;4.22;;;0.95;;
26634;SDS011;14490;54.208;37.686;2023-04-29T10:36:46;1.35;;;1.10;;
26634;SDS011;14490;54.208;37.686;2023-04-29T10:39:21;2.67;;;0.77;;
26634;SDS011;14490;54.208;37.686;2023-04-29T10:41:57;2.10;;;0.85;;
26634;SDS011;14490;54.208;37.686;2023-04-29T10:44:29;2.70;;;0.73;;
26634;SDS011;14490;54.208;37.686;2023-04-29T10:50:03;1.27;;;0.63;;
26634;SDS011;14490;54.208;37.686;2023-04-29T10:52:50;1.48;;;0.73;;
26634;SDS011;14490;54.208;37.686;2023-04-29T10:55:23;1.33;;;0.70;;
26634;SDS011;14490;54.208;37.686;2023-04-29T10:58:32;1.08;;;0.60;;
26634;SDS011;14490;54.208;37.686;2023-04-29T11:03:45;1.63;;;1.20;;
26634;SDS011;14490;54.208;37.686;2023-04-29T11:06:23;4.97;;;0.82;;
26634;SDS011;14490;54.208;37.686;2023-04-29T11:08:58;2.45;;;0.80;;
26634;SDS011;14490;54.208;37.686;2023-04-29T11:11:44;3.55;;;1.08;;
26634;SDS011;14490;54.208;37.686;2023-04-29T11:14:31;1.20;;;0.90;;
26634;SDS011;14490;54.208;37.686;2023-04-29T11:17:11;2.05;;;0.80;;
26634;SDS011;14490;54.208;37.686;2023-04-29T11:19:44;2.65;;;0.88;;
26634;SDS011;14490;54.208;37.686;2023-04-29T11:22:25;0.95;;;0.60;;
26634;SDS011;14490;54.208;37.686;2023-04-29T11:24:59;6.07;;;0.80;;
26634;SDS011;14490;54.208;37.686;2023-04-29T11:27:44;2.45;;;1.00;;
26634;SDS011;14490;54.208;37.686;2023-04-29T11:30:13;3.00;;;1.10;;
26634;SDS011;14490;54.208;37.686;2023-04-29T11:32:49;1.23;;;0.90;;
26634;SDS011;14490;54.208;37.686;2023-04-29T11:35:17;5.57;;;1.00;;
26634;SDS011;14490;54.208;37.686;2023-04-29T11:37:47;1.33;;;0.70;;
26634;SDS011;14490;54.208;37.686;2023-04-29T11:40:18;2.92;;;1.00;;
26634;SDS011;14490;54.208;37.686;2023-04-29T11:42:46;1.17;;;0.73;;
26634;SDS011;14490;54.208;37.686;2023-04-29T11:45:16;2.72;;;0.90;;
26634;SDS011;14490;54.208;37.686;2023-04-29T11:47:52;3.50;;;1.05;;
26634;SDS011;14490;54.208;37.686;2023-04-29T11:50:20;2.22;;;0.93;;
26634;SDS011;14490;54.208;37.686;2023-04-29T11:52:47;3.97;;;0.82;;
26634;SDS011;14490;54.208;37.686;2023-04-29T11:55:15;4.78;;;0.80;;
26634;SDS011;14490;54.208;37.686;2023-04-29T11:57:44;3.70;;;0.75;;
26634;SDS011;14490;54.208;37.686;2023-04-29T12:00:21;3.85;;;1.25;;
26634;SDS011;14490;54.208;37.686;2023-04-29T12:02:53;1.60;;;0.70;;
26634;SDS011;14490;54.208;37.686;2023-04-29T12:07:53;1.50;;;0.60;;
26634;SDS011;14490;54.208;37.686;2023-04-29T12:10:30;1.45;;;0.70;;
26634;SDS011;14490;54.208;37.686;2023-04-29T12:13:34;6.22;;;0.75;;
26634;SDS011;14490;54.208;37.686;2023-04-29T12:16:02;4.35;;;1.27;;
26634;SDS011;14490;54.208;37.686;2023-04-29T12:18:33;1.85;;;0.50;;
26634;SDS011;14490;54.208;37.686;2023-04-29T12:21:01;1.13;;;0.90;;
26634;SDS011;14490;54.208;37.686;2023-04-29T12:23:29;4.20;;;0.70;;
26634;SDS011;14490;54.208;37.686;2023-04-29T12:25:57;2.83;;;1.02;;
26634;SDS011;14490;54.208;37.686;2023-04-29T12:28:26;3.90;;;0.73;;
26634;SDS011;14490;54.208;37.686;2023-04-29T12:30:57;9.27;;;1.00;;
26634;SDS011;14490;54.208;37.686;2023-04-29T12:33:26;1.08;;;0.80;;
26634;SDS011;14490;54.208;37.686;2023-04-29T12:36:00;3.25;;;0.90;;
26634;SDS011;14490;54.208;37.686;2023-04-29T12:38:30;1.10;;;0.70;;
26634;SDS011;14490;54.208;37.686;2023-04-29T12:40:59;2.55;;;0.82;;
26634;SDS011;14490;54.208;37.686;2023-04-29T12:43:35;4.32;;;0.80;;
26634;SDS011;14490;54.208;37.686;2023-04-29T12:53:17;3.00;;;0.80;;
26634;SDS011;14490;54.208;37.686;2023-04-29T12:56:42;1.15;;;0.88;;
26634;SDS011;14490;54.208;37.686;2023-04-29T12:59:25;3.25;;;1.00;;
26634;SDS011;14490;54.208;37.686;2023-04-29T13:01:54;2.85;;;0.88;;
26634;SDS011;14490;54.208;37.686;2023-04-29T13:04:21;6.10;;;0.93;;
26634;SDS011;14490;54.208;37.686;2023-04-29T13:06:54;2.13;;;0.68;;
26634;SDS011;14490;54.208;37.686;2023-04-29T13:09:26;4.32;;;1.00;;
26634;SDS011;14490;54.208;37.686;2023-04-29T13:11:54;4.82;;;0.93;;
26634;SDS011;14490;54.208;37.686;2023-04-29T13:14:23;2.28;;;0.90;;
26634;SDS011;14490;54.208;37.686;2023-04-29T13:17:03;1.35;;;0.95;;
26634;SDS011;14490;54.208;37.686;2023-04-29T13:19:33;1.30;;;0.90;;
26634;SDS011;14490;54.208;37.686;2023-04-29T13:22:00;1.73;;;0.68;;
26634;SDS011;14490;54.208;37.686;2023-04-29T13:24:33;2.28;;;0.80;;
26634;SDS011;14490;54.208;37.686;2023-04-29T13:27:07;1.17;;;0.80;;
26634;SDS011;14490;54.208;37.686;2023-04-29T13:29:37;5.72;;;0.90;;
26634;SDS011;14490;54.208;37.686;2023-04-29T13:32:07;1.48;;;0.70;;
26634;SDS011;14490;54.208;37.686;2023-04-29T13:34:35;2.28;;;1.67;;
26634;SDS011;14490;54.208;37.686;2023-04-29T13:37:07;2.13;;;0.77;;
26634;SDS011;14490;54.208;37.686;2023-04-29T13:39:41;2.88;;;1.10;;
26634;SDS011;14490;54.208;37.686;2023-04-29T13:42:12;1.45;;;0.90;;
26634;SDS011;14490;54.208;37.686;2023-04-29T13:44:43;1.85;;;0.88;;
26634;SDS011;14490;54.208;37.686;2023-04-29T13:47:23;1.52;;;0.80;;
26634;SDS011;14490;54.208;37.686;2023-04-29T13:50:00;3.60;;;0.77;;
26634;SDS011;14490;54.208;37.686;2023-04-29T13:52:33;1.73;;;1.08;;
26634;SDS011;14490;54.208;37.686;2023-04-29T13:57:52;1.58;;;1.00;;
26634;SDS011;14490;54.208;37.686;2023-04-29T14:00:22;2.63;;;0.90;;
26634;SDS011;14490;54.208;37.686;2023-04-29T14:02:52;3.35;;;0.98;;
26634;SDS011;14490;54.208;37.686;2023-04-29T14:05:25;3.13;;;0.85;;
26634;SDS011;14490;54.208;37.686;2023-04-29T14:07:54;2.38;;;1.10;;
26634;SDS011;14490;54.208;37.686;2023-04-29T14:10:23;3.30;;;2.03;;
26634;SDS011;14490;54.208;37.686;2023-04-29T14:12:51;2.33;;;0.80;;
26634;SDS011;14490;54.208;37.686;2023-04-29T14:15:19;2.40;;;1.05;;
26634;SDS011;14490;54.208;37.686;2023-04-29T14:17:52;3.55;;;0.93;;
26634;SDS011;14490;54.208;37.686;2023-04-29T14:20:32;2.67;;;0.95;;
26634;SDS011;14490;54.208;37.686;2023-04-29T14:23:04;5.97;;;1.23;;
26634;SDS011;14490;54.208;37.686;2023-04-29T14:25:41;3.17;;;1.20;;
26634;SDS011;14490;54.208;37.686;2023-04-29T14:28:31;4.10;;;1.02;;
26634;SDS011;14490;54.208;37.686;2023-04-29T14:31:07;3.13;;;1.10;;
26634;SDS011;14490;54.208;37.686;2023-04-29T14:33:41;2.33;;;1.05;;
26634;SDS011;14490;54.208;37.686;2023-04-29T14:36:29;2.97;;;0.90;;
26634;SDS011;14490;54.208;37.686;2023-04-29T14:39:05;2.72;;;1.23;;
26634;SDS011;14490;54.208;37.686;2023-04-29T14:41:34;0.95;;;0.80;;
26634;SDS011;14490;54.208;37.686;2023-04-29T14:44:07;2.83;;;1.30;;
26634;SDS011;14490;54.208;37.686;2023-04-29T14:46:38;2.13;;;1.10;;
26634;SDS011;14490;54.208;37.686;2023-04-29T14:49:06;1.77;;;1.35;;
26634;SDS011;14490;54.208;37.686;2023-04-29T14:51:36;0.70;;;0.70;;
26634;SDS011;14490;54.208;37.686;2023-04-29T14:54:03;2.72;;;0.70;;
26634;SDS011;14490;54.208;37.686;2023-04-29T14:56:31;2.58;;;1.13;;
26634;SDS011;14490;54.208;37.686;2023-04-29T14:59:06;1.13;;;0.90;;
26634;SDS011;14490;54.208;37.686;2023-04-29T15:01:36;2.78;;;1.15;;
26634;SDS011;14490;54.208;37.686;2023-04-29T15:04:03;1.48;;;1.10;;
26634;SDS011;14490;54.208;37.686;2023-04-29T15:06:33;2.30;;;0.80;;
26634;SDS011;14490;54.208;37.686;2023-04-29T15:09:02;4.18;;;1.20;;
26634;SDS011;14490;54.208;37.686;2023-04-29T15:11:30;1.75;;;0.80;;
26634;SDS011;14490;54.208;37.686;2023-04-29T15:14:00;1.48;;;1.05;;
26634;SDS011;14490;54.208;37.686;2023-04-29T15:16:29;3.13;;;1.08;;
26634;SDS011;14490;54.208;37.686;2023-04-29T15:19:00;2.28;;;1.23;;
26634;SDS011;14490;54.208;37.686;2023-04-29T15:21:27;4.10;;;1.00;;
26634;SDS011;14490;54.208;37.686;2023-04-29T15:23:56;4.30;;;1.33;;
26634;SDS011;14490;54.208;37.686;2023-04-29T15:26:24;4.03;;;2.03;;
26634;SDS011;14490;54.208;37.686;2023-04-29T15:28:52;3.10;;;2.13;;
26634;SDS011;14490;54.208;37.686;2023-04-29T15:31:26;4.00;;;2.38;;
26634;SDS011;14490;54.208;37.686;2023-04-29T15:33:54;1.90;;;1.48;;
26634;SDS011;14490;54.208;37.686;2023-04-29T15:36:29;5.55;;;1.90;;
26634;SDS011;14490;54.208;37.686;2023-04-29T15:38:59;3.50;;;1.92;;
26634;SDS011;14490;54.208;37.686;2023-04-29T15:41:27;2.03;;;1.45;;
26634;SDS011;14490;54.208;37.686;2023-04-29T15:43:55;3.90;;;0.90;;
26634;SDS011;14490;54.208;37.686;2023-04-29T15:46:27;6.80;;;1.60;;
26634;SDS011;14490;54.208;37.686;2023-04-29T15:48:56;2.65;;;1.48;;
26634;SDS011;14490;54.208;37.686;2023-04-29T15:51:23;2.38;;;1.30;;
26634;SDS011;14490;54.208;37.686;2023-04-29T15:53:53;1.98;;;1.42;;
26634;SDS011;14490;54.208;37.686;2023-04-29T15:56:23;4.82;;;1.52;;
26634;SDS011;14490;54.208;37.686;2023-04-29T15:58:53;7.53;;;2.08;;
26634;SDS011;14490;54.208;37.686;2023-04-29T16:01:21;3.13;;;1.38;;
26634;SDS011;14490;54.208;37.686;2023-04-29T16:03:53;2.63;;;1.48;;
26634;SDS011;14490;54.208;37.686;2023-04-29T16:06:21;9.43;;;2.00;;
26634;SDS011;14490;54.208;37.686;2023-04-29T16:08:58;7.82;;;1.48;;
26634;SDS011;14490;54.208;37.686;2023-04-29T16:15:34;3.92;;;1.50;;